createdAt,value
2022-10-05T04:03:16.993Z,81.20
2022-10-05T04:05:59.341Z,80.65
2022-10-05T04:09:18.523Z,80.27
2022-10-05T04:11:51.776Z,80.14
2022-10-05T04:14:39.179Z,79.79
2022-10-05T04:17:12.252Z,79.54
2022-10-05T04:20:00.533Z,79.45
2022-10-05T04:22:36.665Z,79.39
2022-10-05T04:25:43.506Z,79.34
2022-10-05T04:28:29.623Z,79.41
2022-10-05T04:31:06.102Z,79.62
2022-10-05T04:33:33.411Z,79.90
2022-10-05T04:36:05.829Z,79.78
2022-10-05T04:38:48.737Z,79.72
2022-10-05T04:41:41.324Z,79.65
2022-10-05T04:44:23.065Z,80.09
2022-10-05T04:47:17.665Z,79.73
2022-10-05T04:50:12.930Z,79.78
2022-10-05T04:53:02.294Z,79.85
2022-10-05T04:55:40.372Z,79.62
2022-10-05T04:58:28.813Z,79.76
2022-10-05T05:01:13.837Z,79.25
2022-10-05T05:03:43.596Z,79.56
2022-10-05T05:06:18.346Z,79.51
2022-10-05T05:09:00.642Z,79.31
2022-10-05T05:11:36.237Z,79.10
2022-10-05T05:14:34.800Z,79.07
2022-10-05T05:17:13.505Z,78.71
2022-10-05T05:19:44.419Z,78.85
2022-10-05T05:22:16.913Z,78.92
2022-10-05T05:25:02.527Z,78.53
2022-10-05T05:27:40.493Z,78.99
2022-10-05T05:30:26.973Z,78.60
2022-10-05T05:33:19.671Z,78.91
2022-10-05T05:36:07.812Z,78.60
2022-10-05T05:38:53.206Z,78.68
2022-10-05T05:41:39.442Z,78.66
2022-10-05T05:44:29.395Z,78.65
2022-10-05T05:47:20.358Z,78.58
2022-10-05T05:50:24.475Z,78.76
2022-10-05T05:52:57.289Z,78.93
2022-10-05T05:55:32.988Z,79.07
2022-10-05T05:58:22.402Z,78.99
2022-10-05T06:01:30.554Z,78.89
2022-10-05T06:04:10.672Z,79.31
2022-10-05T06:06:42.488Z,80.00
2022-10-05T06:09:41.861Z,80.30
2022-10-05T06:12:16.565Z,80.89
2022-10-05T06:14:49.792Z,81.20
2022-10-05T06:17:24.562Z,81.46
2022-10-05T06:20:02.415Z,81.64
2022-10-05T06:22:39.603Z,82.00
2022-10-05T06:25:12.065Z,82.19
2022-10-05T06:27:38.620Z,82.43
2022-10-05T06:30:16.237Z,82.35
2022-10-05T06:33:20.688Z,82.26
2022-10-05T06:35:55.921Z,81.97
2022-10-05T06:38:43.854Z,81.42
2022-10-05T06:41:43.249Z,81.11
2022-10-05T06:44:37.372Z,81.10
2022-10-05T06:47:03.885Z,80.88
2022-10-05T06:49:42.530Z,81.07
2022-10-05T06:52:15.004Z,80.71
2022-10-05T06:54:50.444Z,80.16
2022-10-05T06:57:50.718Z,79.83
2022-10-05T07:00:54.277Z,79.62
2022-10-05T07:03:45.668Z,79.52
2022-10-05T07:06:28.789Z,79.69
2022-10-05T07:09:12.071Z,79.67
2022-10-05T07:12:11.112Z,79.59
2022-10-05T07:14:50.126Z,79.53
2022-10-05T07:17:42.570Z,79.77
2022-10-05T07:20:24.430Z,79.72
2022-10-05T07:23:29.096Z,79.36
2022-10-05T07:26:05.895Z,79.44
2022-10-05T07:28:55.057Z,79.39
2022-10-05T07:31:27.604Z,79.84
2022-10-05T07:34:19.230Z,79.59
2022-10-05T07:37:45.274Z,79.71
2022-10-05T07:40:38.116Z,79.43
2022-10-05T07:43:32.101Z,79.08
2022-10-05T07:46:15.543Z,79.28
2022-10-05T07:49:05.473Z,79.47
2022-10-05T07:51:45.821Z,79.50
2022-10-05T07:54:25.682Z,79.68
2022-10-05T07:57:00.560Z,79.39
2022-10-05T07:59:38.688Z,79.34
2022-10-05T08:02:29.466Z,78.97
2022-10-05T08:05:03.349Z,78.92
2022-10-05T08:07:33.968Z,79.03
2022-10-05T08:10:19.208Z,79.06
2022-10-05T08:13:14.996Z,78.64
2022-10-05T08:15:44.917Z,79.00
2022-10-05T08:18:20.694Z,78.59
2022-10-05T08:20:53.411Z,78.51
2022-10-05T08:23:31.020Z,78.40
2022-10-05T08:26:14.650Z,78.47
2022-10-05T08:28:57.437Z,77.86
2022-10-05T08:31:27.636Z,77.36
2022-10-05T08:34:17.415Z,77.20
2022-10-05T08:36:44.896Z,77.48
2022-10-05T08:39:18.926Z,77.25
2022-10-05T08:42:03.750Z,77.05
2022-10-05T08:45:07.889Z,76.49
2022-10-05T08:47:52.908Z,77.01
2022-10-05T08:50:53.315Z,76.60
2022-10-05T08:53:43.274Z,76.93
2022-10-05T08:56:29.074Z,76.88
2022-10-05T08:59:27.134Z,76.97
2022-10-05T09:02:06.202Z,76.92
2022-10-05T09:04:51.287Z,76.84
2022-10-05T09:07:17.768Z,76.04
2022-10-05T09:10:19.529Z,76.46
2022-10-05T09:13:04.876Z,76.16
2022-10-05T09:15:50.535Z,75.88
2022-10-05T09:18:52.374Z,75.35
2022-10-05T09:21:43.283Z,74.83
2022-10-05T09:24:12.840Z,74.76
2022-10-05T09:26:48.861Z,74.51
2022-10-05T09:29:37.046Z,74.91
2022-10-05T09:32:51.838Z,74.93
2022-10-05T09:35:59.657Z,74.69
2022-10-05T09:39:08.394Z,74.88
2022-10-05T09:42:02.493Z,74.66
2022-10-05T09:45:00.129Z,74.53
2022-10-05T09:48:02.636Z,74.93
2022-10-05T09:50:38.117Z,75.27
2022-10-05T09:53:40.845Z,75.00
2022-10-05T09:56:29.622Z,74.41
2022-10-05T09:59:17.952Z,74.25
2022-10-05T10:02:20.528Z,74.63
2022-10-05T10:05:05.746Z,74.80
2022-10-05T10:07:44.541Z,74.49
2022-10-05T10:10:19.954Z,74.43
2022-10-05T10:12:58.641Z,74.65
2022-10-05T10:15:34.161Z,74.68
2022-10-05T10:18:19.176Z,75.34
2022-10-05T10:21:07.551Z,74.80
2022-10-05T10:24:01.374Z,76.21
2022-10-05T10:26:47.644Z,76.54
2022-10-05T10:29:48.152Z,76.69
2022-10-05T10:32:33.040Z,76.17
2022-10-05T10:35:12.326Z,75.57
2022-10-05T10:37:58.601Z,75.60
2022-10-05T10:40:56.354Z,75.27
2022-10-05T10:44:14.144Z,74.85
2022-10-05T10:47:35.071Z,74.32
2022-10-05T10:50:28.313Z,73.99
2022-10-05T10:53:36.703Z,74.12
2022-10-05T10:56:12.327Z,73.93
2022-10-05T10:58:57.327Z,73.40
2022-10-05T11:01:32.820Z,72.71
2022-10-05T11:04:35.233Z,72.14
2022-10-05T11:07:04.597Z,72.40
2022-10-05T11:09:43.445Z,72.73
2022-10-05T11:12:13.224Z,72.41
2022-10-05T11:14:57.081Z,72.50
2022-10-05T11:17:38.681Z,72.16
2022-10-05T11:20:42.460Z,72.20
2022-10-05T11:23:39.144Z,70.96
2022-10-05T11:26:08.631Z,69.68
2022-10-05T11:28:42.433Z,70.61
2022-10-05T11:31:39.069Z,69.68
2022-10-05T11:34:08.252Z,69.86
2022-10-05T11:36:46.211Z,70.63
2022-10-05T11:39:38.115Z,70.08
2022-10-05T11:42:33.716Z,69.54
2022-10-05T11:45:33.079Z,67.01
2022-10-05T11:48:37.701Z,65.16
2022-10-05T11:51:28.903Z,65.92
2022-10-05T11:54:18.494Z,66.84
2022-10-05T11:56:54.734Z,68.18
2022-10-05T11:59:34.555Z,69.49
2022-10-05T12:02:13.932Z,69.64
2022-10-05T12:04:49.753Z,69.32
2022-10-05T12:07:30.140Z,69.41
2022-10-05T12:10:15.153Z,67.90
2022-10-05T12:12:52.296Z,68.51
2022-10-05T12:15:31.848Z,68.13
2022-10-05T12:18:08.283Z,68.31
2022-10-05T12:20:49.603Z,68.64
2022-10-05T12:23:30.893Z,69.59
2022-10-05T12:26:20.499Z,69.76
2022-10-05T12:28:52.892Z,70.13
2022-10-05T12:31:37.660Z,70.27
2022-10-05T12:34:20.857Z,69.77
2022-10-05T12:37:09.343Z,69.86
2022-10-05T12:40:00.165Z,69.71
2022-10-05T12:42:51.257Z,69.89
2022-10-05T12:45:36.065Z,70.06
2022-10-05T12:48:15.745Z,71.04
2022-10-05T12:50:47.921Z,70.74
2022-10-05T12:53:59.080Z,71.08
2022-10-05T12:56:50.559Z,71.21
2022-10-05T12:59:38.375Z,71.46
2022-10-05T13:02:39.001Z,70.98
2022-10-05T13:05:11.303Z,71.24
2022-10-05T13:07:59.007Z,70.89
2022-10-05T13:10:47.958Z,71.03
2022-10-05T13:13:23.946Z,70.79
2022-10-05T13:16:11.258Z,70.09
2022-10-05T13:19:06.605Z,69.61
2022-10-05T13:21:48.642Z,69.62
2022-10-05T13:24:24.010Z,69.05
2022-10-05T13:26:57.617Z,68.66
2022-10-05T13:29:33.116Z,67.31
2022-10-05T13:32:23.730Z,65.46
2022-10-05T13:35:02.485Z,63.38
2022-10-05T13:37:56.120Z,59.92
2022-10-05T13:40:36.332Z,59.48
2022-10-05T13:43:33.582Z,58.61
2022-10-05T13:46:37.653Z,56.75
2022-10-05T13:49:16.271Z,55.82
2022-10-05T13:52:08.469Z,54.57
2022-10-05T13:54:58.125Z,59.23
2022-10-05T13:57:45.481Z,62.80
2022-10-05T14:00:24.214Z,64.05
2022-10-05T14:02:57.755Z,64.65
2022-10-05T14:05:27.105Z,65.36
2022-10-05T14:08:02.546Z,66.05
2022-10-05T14:10:37.811Z,66.40
2022-10-05T14:13:33.666Z,67.50
2022-10-05T14:16:06.625Z,67.21
2022-10-05T14:18:36.938Z,67.22
2022-10-05T14:21:12.926Z,66.79
2022-10-05T14:23:40.314Z,67.73
2022-10-05T14:26:31.741Z,68.19
2022-10-05T14:29:18.868Z,68.78
2022-10-05T14:31:54.452Z,69.06
2022-10-05T14:34:31.024Z,69.45
2022-10-05T14:37:01.340Z,69.36
2022-10-05T14:39:34.019Z,69.33
2022-10-05T14:42:14.072Z,69.79
2022-10-05T14:44:41.071Z,69.74
2022-10-05T14:47:30.284Z,69.84
2022-10-05T14:50:30.679Z,69.39
2022-10-05T14:53:00.645Z,69.04
2022-10-05T14:55:45.842Z,69.18
2022-10-05T14:58:40.311Z,69.35
2022-10-05T15:01:14.899Z,69.47
2022-10-05T15:03:53.753Z,69.89
2022-10-05T15:06:35.455Z,70.26
2022-10-05T15:09:30.745Z,70.30
2022-10-05T15:12:01.825Z,70.45
2022-10-05T15:14:40.356Z,70.12
2022-10-05T15:17:17.274Z,70.37
2022-10-05T15:20:02.064Z,70.47
2022-10-05T15:22:36.489Z,70.52
2022-10-05T15:25:13.772Z,71.16
2022-10-05T15:28:11.517Z,70.95
2022-10-05T15:30:43.099Z,70.25
2022-10-05T15:33:20.705Z,69.94
2022-10-05T15:36:00.686Z,69.91
2022-10-05T15:39:08.287Z,70.22
2022-10-05T15:41:52.964Z,70.00
2022-10-05T15:44:28.518Z,70.33
2022-10-05T15:47:08.933Z,70.01
2022-10-05T15:49:38.320Z,70.24
2022-10-05T15:52:26.810Z,70.56
2022-10-05T15:55:11.811Z,70.63
2022-10-05T15:58:16.065Z,70.79
2022-10-05T16:00:48.576Z,71.00
2022-10-05T16:03:37.043Z,71.19
2022-10-05T16:06:38.610Z,71.29
2022-10-05T16:09:27.012Z,71.73
2022-10-05T16:12:02.363Z,71.62
2022-10-05T16:15:20.453Z,71.86
2022-10-05T16:18:27.041Z,72.17
2022-10-05T16:21:18.242Z,72.28
2022-10-05T16:24:15.599Z,72.76
2022-10-05T16:27:07.141Z,72.40
2022-10-05T16:29:51.672Z,72.31
2022-10-05T16:32:30.238Z,72.85
2022-10-05T16:35:33.255Z,72.71
2022-10-05T16:38:22.094Z,73.11
2022-10-05T16:41:02.349Z,73.19
2022-10-05T16:43:29.083Z,73.18
2022-10-05T16:46:00.501Z,73.44
2022-10-05T16:48:52.419Z,73.26
2022-10-05T16:51:21.664Z,73.89
2022-10-05T16:53:59.655Z,74.07
2022-10-05T16:56:32.058Z,74.17
2022-10-05T16:59:04.548Z,74.46
2022-10-05T17:02:05.211Z,74.44
2022-10-05T17:04:46.586Z,74.56
2022-10-05T17:07:25.090Z,74.98
2022-10-05T17:10:22.679Z,75.22
2022-10-05T17:13:03.999Z,74.97
2022-10-05T17:15:56.566Z,75.13
2022-10-05T17:18:49.390Z,75.16
2022-10-05T17:21:21.719Z,75.09
2022-10-05T17:24:00.429Z,75.05
2022-10-05T17:26:45.322Z,74.87
2022-10-05T17:29:30.824Z,75.18
2022-10-05T17:32:06.272Z,75.25
2022-10-05T17:34:36.886Z,75.40
2022-10-05T17:37:17.473Z,75.93
2022-10-05T17:39:45.970Z,75.86
2022-10-05T17:42:46.494Z,75.77
2022-10-05T17:45:13.017Z,75.82
2022-10-05T17:48:11.644Z,76.15
2022-10-05T17:51:07.414Z,76.14
2022-10-05T17:53:52.753Z,76.40
2022-10-05T17:56:23.273Z,76.10
2022-10-05T17:58:54.611Z,76.06
2022-10-05T18:01:30.364Z,76.35
2022-10-05T18:04:32.481Z,76.59
2022-10-05T18:07:16.915Z,76.41
2022-10-05T18:10:09.662Z,76.25
2022-10-05T18:12:36.120Z,76.40
2022-10-05T18:15:05.382Z,76.12
2022-10-05T18:17:56.118Z,76.19
2022-10-05T18:20:28.778Z,76.62
2022-10-05T18:23:07.368Z,76.60
2022-10-05T18:25:52.132Z,76.37
2022-10-05T18:28:21.412Z,76.51
2022-10-05T18:31:00.479Z,76.36
2022-10-05T18:33:41.534Z,76.00
2022-10-05T18:36:38.044Z,76.26
2022-10-05T18:39:33.994Z,76.51
2022-10-05T18:42:31.606Z,76.92
2022-10-05T18:45:14.782Z,76.67
2022-10-05T18:47:51.217Z,76.87
2022-10-05T18:50:34.269Z,76.82
2022-10-05T18:53:28.313Z,76.89
2022-10-05T18:56:03.587Z,77.20
2022-10-05T18:58:56.935Z,77.42
2022-10-05T19:01:28.047Z,77.58
2022-10-05T19:04:09.682Z,77.88
2022-10-05T19:06:57.581Z,78.34
2022-10-05T19:09:42.708Z,78.41
2022-10-05T19:12:22.357Z,78.95
2022-10-05T19:14:54.800Z,80.14
2022-10-05T19:17:31.729Z,80.58
2022-10-05T19:20:20.982Z,82.50
2022-10-05T19:23:30.138Z,83.23
2022-10-05T19:26:03.268Z,83.50
2022-10-05T19:28:37.123Z,83.42
2022-10-05T19:31:12.907Z,83.16
2022-10-05T19:34:07.483Z,83.28
2022-10-05T19:37:09.591Z,82.98
2022-10-05T19:39:58.757Z,83.26
2022-10-05T19:42:45.199Z,83.19
2022-10-05T19:45:28.279Z,83.54
2022-10-05T19:48:23.706Z,83.72
2022-10-05T19:50:58.629Z,83.59
2022-10-05T19:53:32.627Z,83.70
2022-10-05T19:56:21.058Z,83.98
2022-10-05T19:58:49.903Z,83.80
2022-10-05T20:01:31.414Z,83.90
2022-10-05T20:03:58.104Z,84.49
2022-10-05T20:06:26.773Z,81.30
2022-10-05T20:08:59.935Z,76.30
2022-10-05T20:11:28.244Z,76.22
2022-10-05T20:13:58.482Z,77.77
2022-10-05T20:19:50.898Z,83.88
2022-10-05T20:22:29.822Z,84.68
2022-10-05T20:25:02.453Z,86.16
2022-10-05T20:27:43.792Z,87.40
2022-10-05T20:30:27.887Z,88.26
2022-10-05T20:33:09.310Z,89.39
2022-10-05T20:35:35.826Z,89.48
2022-10-05T20:38:02.404Z,89.83
2022-10-05T20:40:30.155Z,90.18
2022-10-05T20:42:58.234Z,90.04
2022-10-05T20:45:24.870Z,90.48
2022-10-05T20:47:51.739Z,90.40
2022-10-05T20:50:18.535Z,91.09
2022-10-05T20:52:45.125Z,90.89
2022-10-05T20:55:12.206Z,90.63
2022-10-05T20:57:42.098Z,90.94
2022-10-05T21:00:10.937Z,91.08
2022-10-05T21:02:39.525Z,91.90
2022-10-05T21:05:07.775Z,91.89
2022-10-05T21:07:34.461Z,91.45
2022-10-05T21:10:04.225Z,91.16
2022-10-05T21:12:30.946Z,91.12
2022-10-05T21:14:59.532Z,90.93
2022-10-05T21:17:26.089Z,91.55
2022-10-05T21:19:52.691Z,91.41
2022-10-05T21:22:19.224Z,91.04
2022-10-05T21:24:45.992Z,91.08
2022-10-05T21:27:12.578Z,91.14
2022-10-05T21:29:41.267Z,90.90
2022-10-05T21:32:11.622Z,91.32
2022-10-05T21:34:41.637Z,91.21
2022-10-05T21:37:08.634Z,91.79
2022-10-05T21:39:36.726Z,91.73
2022-10-05T21:42:04.448Z,91.99
2022-10-05T21:44:31.048Z,92.00
2022-10-05T21:46:57.711Z,91.66
2022-10-05T21:49:25.411Z,92.24
2022-10-05T21:51:52.065Z,92.68
2022-10-05T21:54:21.123Z,92.81
2022-10-05T21:56:51.674Z,93.04
2022-10-05T21:59:21.640Z,92.82
